Salt Lake City, Utah
Traffic Map
Current Weather Conditions
Salt Lake City, Utah
Clear
Clear
57°
Feels Like: 57°
Wind Chill: 57° Ceiling: Unl
Heat Index: 57° Visibility: 10mi
Dew Point: 37° Wind: 7mph
Humidity: 47% Direction: 140° (SE)
Pressure: 30.08in Gusts: 0mph
Raw Report DataKSLC 250353Z 14006KT 10SM CLR 14/03 A3008 RMK AO2 SLP156 T01390028
Traffic Incident Summary
Active as of:
Severity:
Category:
InformationThere was an issue retrieving the traffic information for this location. Please try a different location or try again shortly.
Advertisements
Track Severe Weather on mobile